createdAt,value
2017-11-12T00:01:43.152Z,17.40
2017-11-12T00:04:12.410Z,17.33
2017-11-12T00:06:41.034Z,20.30
2017-11-12T00:09:09.491Z,15.27
2017-11-12T00:11:38.775Z,18.00
2017-11-12T00:14:07.131Z,19.00
2017-11-12T00:16:35.773Z,14.07
2017-11-12T00:19:05.309Z,15.27
2017-11-12T00:21:33.888Z,19.40
2017-11-12T00:24:02.489Z,20.97
2017-11-12T00:26:31.111Z,19.00
2017-11-12T00:28:59.794Z,17.00
2017-11-12T00:31:28.518Z,15.07
2017-11-12T00:33:57.508Z,17.83
2017-11-12T00:36:26.452Z,15.53
2017-11-12T00:38:55.167Z,11.43
2017-11-12T00:41:24.039Z,15.67
2017-11-12T00:43:52.120Z,12.53
2017-11-12T00:46:20.959Z,15.37
2017-11-12T00:48:49.990Z,11.77
2017-11-12T00:51:20.219Z,15.80
2017-11-12T00:53:51.444Z,13.63
2017-11-12T00:56:21.223Z,13.03
2017-11-12T00:58:52.456Z,16.70
2017-11-12T01:01:22.077Z,19.10
2017-11-12T01:03:50.603Z,18.27
2017-11-12T01:06:20.247Z,15.13
2017-11-12T01:08:50.125Z,17.00
2017-11-12T01:11:20.190Z,16.87
2017-11-12T01:13:49.403Z,16.50
2017-11-12T01:16:18.436Z,14.43
2017-11-12T01:18:47.369Z,16.47
2017-11-12T01:21:16.847Z,15.33
2017-11-12T01:23:46.251Z,17.97
2017-11-12T01:26:15.818Z,18.33
2017-11-12T01:28:45.892Z,22.47
2017-11-12T01:31:14.900Z,18.20
2017-11-12T01:33:44.155Z,14.67
2017-11-12T01:36:14.134Z,17.10
2017-11-12T01:38:43.476Z,14.30
2017-11-12T01:41:13.374Z,16.70
2017-11-12T01:43:43.306Z,17.40
2017-11-12T01:46:12.207Z,13.60
2017-11-12T01:48:41.541Z,16.50
2017-11-12T01:51:11.090Z,13.57
2017-11-12T01:53:40.915Z,16.03
2017-11-12T01:56:10.545Z,14.20
2017-11-12T01:58:38.709Z,17.20
2017-11-12T02:01:08.444Z,15.20
2017-11-12T02:03:36.965Z,16.00
2017-11-12T02:06:05.186Z,12.80
2017-11-12T02:08:36.116Z,12.03
2017-11-12T02:11:04.561Z,11.70
2017-11-12T02:13:33.969Z,16.03
2017-11-12T02:16:02.731Z,13.33
2017-11-12T02:18:31.007Z,13.20
2017-11-12T02:20:59.404Z,13.10
2017-11-12T02:23:27.976Z,15.00
2017-11-12T02:25:56.271Z,11.77
2017-11-12T02:28:24.972Z,11.73
2017-11-12T02:30:53.025Z,11.23
2017-11-12T02:33:20.997Z,13.17
2017-11-12T02:35:49.731Z,13.60
2017-11-12T02:38:17.779Z,16.07
2017-11-12T02:40:45.469Z,14.00
2017-11-12T02:43:14.742Z,14.37
2017-11-12T02:45:43.027Z,14.10
2017-11-12T02:48:11.404Z,12.40
2017-11-12T02:50:40.385Z,13.93
2017-11-12T02:53:09.495Z,14.07
2017-11-12T02:55:37.601Z,13.23
2017-11-12T02:58:05.815Z,14.40
2017-11-12T03:00:34.126Z,12.27
2017-11-12T03:03:02.417Z,13.13
2017-11-12T03:05:30.570Z,16.37
2017-11-12T03:07:59.114Z,13.17
2017-11-12T03:10:27.843Z,11.80
2017-11-12T03:12:56.165Z,14.10
2017-11-12T03:15:24.332Z,11.50
2017-11-12T03:17:52.912Z,12.03
2017-11-12T03:20:21.030Z,13.70
2017-11-12T03:22:49.769Z,9.20
2017-11-12T03:25:19.327Z,12.37
2017-11-12T03:27:47.677Z,13.60
2017-11-12T03:30:15.226Z,14.73
2017-11-12T03:32:43.806Z,11.77
2017-11-12T03:35:11.857Z,11.03
2017-11-12T03:37:39.785Z,13.40
2017-11-12T03:40:07.876Z,11.73
2017-11-12T03:42:35.867Z,12.67
2017-11-12T03:45:04.506Z,14.37
2017-11-12T03:47:32.684Z,15.73
2017-11-12T03:50:00.878Z,12.57
2017-11-12T03:52:28.787Z,13.47
2017-11-12T03:54:58.015Z,11.00
2017-11-12T03:57:26.025Z,11.63
2017-11-12T03:59:54.345Z,13.47
2017-11-12T04:02:22.295Z,10.77
2017-11-12T04:04:51.201Z,16.43
2017-11-12T04:07:19.235Z,15.10
2017-11-12T04:09:47.636Z,10.60
2017-11-12T04:12:16.778Z,15.80
2017-11-12T04:14:45.002Z,13.90
2017-11-12T04:17:13.082Z,20.70
2017-11-12T04:19:41.865Z,13.90
2017-11-12T04:22:10.548Z,13.93
2017-11-12T04:24:39.283Z,13.77
2017-11-12T04:27:07.479Z,13.80
2017-11-12T04:29:36.018Z,9.33
2017-11-12T04:32:05.142Z,13.00
2017-11-12T04:34:33.943Z,15.30
2017-11-12T04:37:02.181Z,12.00
2017-11-12T04:39:30.052Z,12.63
2017-11-12T04:41:58.656Z,10.33
2017-11-12T04:44:26.565Z,9.93
2017-11-12T04:46:55.004Z,9.93
2017-11-12T04:49:23.107Z,25.23
2017-11-12T04:51:51.159Z,19.63
2017-11-12T04:54:19.452Z,22.20
2017-11-12T04:56:47.399Z,23.30
2017-11-12T04:59:15.676Z,16.17
2017-11-12T05:01:44.504Z,10.10
2017-11-12T05:04:12.454Z,12.47
2017-11-12T05:06:41.401Z,13.57
2017-11-12T05:09:09.322Z,20.07
2017-11-12T05:11:37.360Z,12.90
2017-11-12T05:14:05.462Z,12.00
2017-11-12T05:16:33.865Z,13.40
2017-11-12T05:19:01.961Z,11.47
2017-11-12T05:21:29.728Z,10.53
2017-11-12T05:23:57.620Z,19.33
2017-11-12T05:26:25.744Z,11.97
2017-11-12T05:28:53.727Z,11.40
2017-11-12T05:31:22.004Z,11.67
2017-11-12T05:33:50.071Z,10.70
2017-11-12T05:36:18.129Z,11.70
2017-11-12T05:38:46.684Z,11.77
2017-11-12T05:41:15.428Z,9.33
2017-11-12T05:43:44.430Z,11.67
2017-11-12T05:46:13.685Z,11.57
2017-11-12T05:48:41.811Z,12.83
2017-11-12T05:51:10.184Z,10.43
2017-11-12T05:53:38.379Z,10.03
2017-11-12T05:56:06.642Z,9.13
2017-11-12T05:58:34.944Z,12.40
2017-11-12T06:01:02.952Z,14.50
2017-11-12T06:03:30.528Z,10.40
2017-11-12T06:05:58.579Z,12.50
2017-11-12T06:08:26.586Z,11.90
2017-11-12T06:10:55.314Z,14.13
2017-11-12T06:13:23.848Z,14.50
2017-11-12T06:15:51.985Z,11.00
2017-11-12T06:18:21.000Z,13.60
2017-11-12T06:20:49.145Z,12.80
2017-11-12T06:23:17.151Z,14.70
2017-11-12T06:25:46.245Z,12.17
2017-11-12T06:28:13.916Z,11.93
2017-11-12T06:30:43.434Z,16.03
2017-11-12T06:33:11.902Z,16.23
2017-11-12T06:35:39.711Z,15.10
2017-11-12T06:38:08.277Z,12.23
2017-11-12T06:40:36.722Z,11.73
2017-11-12T06:43:04.704Z,16.43
2017-11-12T06:45:33.404Z,12.60
2017-11-12T06:48:01.568Z,13.57
2017-11-12T06:50:29.924Z,16.47
2017-11-12T06:52:58.360Z,17.13
2017-11-12T06:55:27.310Z,13.13
2017-11-12T06:57:55.493Z,15.50
2017-11-12T07:00:24.669Z,11.30
2017-11-12T07:02:52.846Z,14.77
2017-11-12T07:05:20.852Z,17.33
2017-11-12T07:07:50.594Z,11.93
2017-11-12T07:10:18.710Z,13.13
2017-11-12T07:12:47.437Z,12.73
2017-11-12T07:15:15.621Z,15.73
2017-11-12T07:17:43.504Z,14.73
2017-11-12T07:20:12.784Z,14.43
2017-11-12T07:22:41.527Z,12.33
2017-11-12T07:25:09.710Z,12.83
2017-11-12T07:27:38.517Z,14.40
2017-11-12T07:30:07.360Z,14.40
2017-11-12T07:32:36.163Z,14.63
2017-11-12T07:35:04.293Z,15.27
2017-11-12T07:37:32.903Z,13.47
2017-11-12T07:40:01.292Z,13.43
2017-11-12T07:42:29.896Z,12.80
2017-11-12T07:44:58.813Z,13.90
2017-11-12T07:47:27.218Z,16.17
2017-11-12T07:49:56.174Z,12.27
2017-11-12T07:52:24.433Z,13.17
2017-11-12T07:54:52.865Z,13.60
2017-11-12T07:57:21.602Z,13.03
2017-11-12T07:59:50.010Z,16.10
2017-11-12T08:02:18.666Z,14.33
2017-11-12T08:04:47.055Z,15.27
2017-11-12T08:07:15.252Z,17.97
2017-11-12T08:09:43.424Z,19.13
2017-11-12T08:12:12.685Z,14.53
2017-11-12T08:14:41.112Z,14.10
2017-11-12T08:17:09.239Z,14.23
2017-11-12T08:19:38.047Z,13.97
2017-11-12T08:22:06.586Z,15.60
2017-11-12T08:24:34.919Z,13.53
2017-11-12T08:27:03.694Z,13.90
2017-11-12T08:29:32.413Z,17.30
2017-11-12T08:32:00.711Z,15.80
2017-11-12T08:34:28.963Z,13.37
2017-11-12T08:36:56.967Z,17.87
2017-11-12T08:39:25.344Z,13.70
2017-11-12T08:41:53.528Z,14.80
2017-11-12T08:44:21.482Z,20.47
2017-11-12T08:46:50.008Z,14.40
2017-11-12T08:49:19.126Z,12.43
2017-11-12T08:51:48.349Z,11.47
2017-11-12T08:54:16.814Z,10.53
2017-11-12T08:56:45.257Z,10.60
2017-11-12T08:59:13.842Z,9.20
2017-11-12T09:01:42.724Z,11.30
2017-11-12T09:04:11.947Z,12.50
2017-11-12T09:06:41.366Z,14.37
2017-11-12T09:09:09.911Z,11.97
2017-11-12T09:11:38.702Z,14.27
2017-11-12T09:14:07.302Z,13.03
2017-11-12T09:16:35.288Z,11.00
2017-11-12T09:19:03.835Z,12.13
2017-11-12T09:21:33.492Z,10.43
2017-11-12T09:24:02.510Z,11.90
2017-11-12T09:26:30.658Z,8.63
2017-11-12T09:28:59.436Z,7.60
2017-11-12T09:31:28.234Z,9.20
2017-11-12T09:33:56.990Z,6.70
2017-11-12T09:36:25.453Z,7.87
2017-11-12T09:38:53.686Z,9.67
2017-11-12T09:41:22.601Z,8.07
2017-11-12T09:43:51.680Z,9.40
2017-11-12T09:46:20.483Z,9.93
2017-11-12T09:48:49.195Z,11.03
2017-11-12T09:51:17.587Z,7.40
2017-11-12T09:53:45.894Z,6.53
2017-11-12T09:56:14.104Z,8.10
2017-11-12T09:58:42.824Z,8.40
2017-11-12T10:01:10.971Z,7.67
2017-11-12T10:03:39.057Z,8.37
2017-11-12T10:06:07.586Z,8.67
2017-11-12T10:08:36.452Z,7.50
2017-11-12T10:11:05.022Z,8.50
2017-11-12T10:13:33.364Z,5.40
2017-11-12T10:16:01.805Z,7.47
2017-11-12T10:18:30.258Z,6.90
2017-11-12T10:20:58.782Z,5.23
2017-11-12T10:23:27.897Z,4.20
2017-11-12T10:25:56.268Z,5.30
2017-11-12T10:28:24.727Z,8.57
2017-11-12T10:30:53.310Z,3.77
2017-11-12T10:33:21.902Z,4.70
2017-11-12T10:35:50.353Z,3.80
2017-11-12T10:38:18.738Z,7.23
2017-11-12T10:40:47.656Z,4.20
2017-11-12T10:43:16.768Z,4.13
2017-11-12T10:45:44.930Z,6.93
2017-11-12T10:48:13.414Z,6.40
2017-11-12T10:50:42.678Z,4.23
2017-11-12T10:53:12.181Z,4.70
2017-11-12T10:55:40.949Z,6.80
2017-11-12T10:58:10.131Z,5.60
2017-11-12T11:00:38.315Z,4.73
2017-11-12T11:03:07.331Z,5.50
2017-11-12T11:05:37.855Z,5.87
2017-11-12T11:08:05.797Z,4.23
2017-11-12T11:10:35.168Z,6.73
2017-11-12T11:13:03.402Z,5.60
2017-11-12T11:15:31.407Z,6.67
2017-11-12T11:17:59.946Z,4.80
2017-11-12T11:20:27.777Z,4.47
2017-11-12T11:22:56.402Z,4.60
2017-11-12T11:25:24.989Z,3.17
2017-11-12T11:27:54.066Z,3.73
2017-11-12T11:30:22.061Z,5.00
2017-11-12T11:32:51.209Z,3.47
2017-11-12T11:35:19.066Z,7.57
2017-11-12T11:37:47.017Z,3.57
2017-11-12T11:40:15.337Z,5.80
2017-11-12T11:42:43.676Z,3.60
2017-11-12T11:45:12.660Z,3.77
2017-11-12T11:47:40.777Z,5.20
2017-11-12T11:50:09.567Z,5.50
2017-11-12T11:52:38.532Z,10.20
2017-11-12T11:55:06.904Z,8.63
2017-11-12T11:57:35.452Z,7.17
2017-11-12T12:00:03.375Z,5.50
2017-11-12T12:02:31.661Z,4.93
2017-11-12T12:05:00.071Z,5.80
2017-11-12T12:07:28.972Z,8.20
2017-11-12T12:09:57.728Z,7.67
2017-11-12T12:12:26.188Z,7.27
2017-11-12T12:14:54.860Z,5.50
2017-11-12T12:17:23.590Z,6.37
2017-11-12T12:19:51.565Z,7.00
2017-11-12T12:22:20.463Z,5.63
2017-11-12T12:24:48.645Z,4.53
2017-11-12T12:27:16.783Z,3.50
2017-11-12T12:29:44.844Z,4.20
2017-11-12T12:32:13.909Z,3.20
2017-11-12T12:34:42.363Z,5.40
2017-11-12T12:37:11.603Z,5.67
2017-11-12T12:39:39.584Z,6.13
2017-11-12T12:42:09.289Z,4.73
2017-11-12T12:44:37.416Z,5.20
2017-11-12T12:47:06.126Z,4.30
2017-11-12T12:49:34.165Z,7.10
2017-11-12T12:52:02.719Z,5.43
2017-11-12T12:54:31.040Z,3.97
2017-11-12T12:56:59.243Z,5.47
2017-11-12T12:59:28.869Z,8.70
2017-11-12T13:01:57.695Z,6.13
2017-11-12T13:04:25.726Z,5.60
2017-11-12T13:06:54.837Z,4.00
2017-11-12T13:09:23.958Z,5.57
2017-11-12T13:11:51.892Z,6.20
2017-11-12T13:14:19.748Z,4.70
2017-11-12T13:16:48.315Z,6.63
2017-11-12T13:19:16.748Z,5.00
2017-11-12T13:21:44.752Z,4.73
2017-11-12T13:24:15.489Z,4.50
2017-11-12T13:26:43.219Z,5.63
2017-11-12T13:29:11.291Z,4.00
2017-11-12T13:31:38.822Z,3.23
2017-11-12T13:34:06.734Z,3.10
2017-11-12T13:36:34.705Z,3.63
2017-11-12T13:39:02.184Z,5.20
2017-11-12T13:41:29.624Z,4.50
2017-11-12T13:43:57.036Z,3.27
2017-11-12T13:46:24.545Z,4.70
2017-11-12T13:48:51.965Z,3.10
2017-11-12T13:51:19.778Z,5.17
2017-11-12T13:53:47.348Z,3.30
2017-11-12T13:56:14.831Z,3.90
2017-11-12T13:58:42.239Z,4.30
2017-11-12T14:01:10.134Z,3.87
2017-11-12T14:03:37.569Z,3.60
2017-11-12T14:06:05.465Z,2.37
2017-11-12T14:08:32.907Z,3.20
2017-11-12T14:11:00.829Z,3.30
2017-11-12T14:13:28.284Z,2.37
2017-11-12T14:15:55.801Z,4.00
2017-11-12T14:18:23.697Z,3.10
2017-11-12T14:20:51.165Z,2.20
2017-11-12T14:23:18.571Z,3.63
2017-11-12T14:25:46.829Z,3.17
2017-11-12T14:28:14.244Z,2.03
2017-11-12T14:30:41.665Z,2.60
2017-11-12T14:33:09.087Z,2.40
2017-11-12T14:35:36.539Z,2.17
2017-11-12T14:38:04.011Z,2.40
2017-11-12T14:40:31.482Z,2.33
2017-11-12T14:42:58.914Z,2.30
2017-11-12T14:45:26.740Z,2.23
2017-11-12T14:47:54.184Z,2.47
2017-11-12T14:50:21.620Z,3.53
2017-11-12T14:52:49.048Z,2.40
2017-11-12T14:55:16.524Z,3.30
2017-11-12T14:57:44.039Z,2.50
2017-11-12T15:00:11.789Z,4.30
2017-11-12T15:02:39.869Z,6.00
2017-11-12T15:05:07.346Z,4.40
2017-11-12T15:07:35.707Z,5.60
2017-11-12T15:10:03.189Z,3.73
2017-11-12T15:12:30.666Z,3.23
2017-11-12T15:14:58.202Z,4.20
2017-11-12T15:17:25.653Z,3.77
2017-11-12T15:19:53.071Z,5.50
2017-11-12T15:22:21.137Z,4.57
2017-11-12T15:24:48.592Z,3.87
2017-11-12T15:27:16.042Z,8.67
2017-11-12T15:29:43.537Z,4.37
2017-11-12T15:32:11.408Z,2.80
2017-11-12T15:34:39.288Z,4.00
2017-11-12T15:37:07.249Z,3.07
2017-11-12T15:39:34.688Z,3.87
2017-11-12T15:42:02.190Z,4.70
2017-11-12T15:44:30.163Z,4.47
2017-11-12T15:46:58.033Z,3.43
2017-11-12T15:49:25.886Z,4.50
2017-11-12T15:51:53.765Z,10.10
2017-11-12T15:54:21.731Z,4.90
2017-11-12T15:56:49.201Z,5.83
2017-11-12T15:59:17.129Z,7.63
2017-11-12T16:01:44.552Z,7.87
2017-11-12T16:04:12.018Z,10.17
2017-11-12T16:06:39.561Z,18.67
2017-11-12T16:09:07.363Z,15.13
2017-11-12T16:11:34.870Z,21.47
2017-11-12T16:14:02.685Z,18.30
2017-11-12T16:16:30.520Z,7.20
2017-11-12T16:18:58.424Z,6.10
2017-11-12T16:21:25.903Z,5.60
2017-11-12T16:23:53.338Z,6.83
2017-11-12T16:26:21.203Z,3.67
2017-11-12T16:28:48.688Z,4.67
2017-11-12T16:31:16.179Z,5.60
2017-11-12T16:33:43.643Z,5.23
2017-11-12T16:36:11.092Z,4.70
2017-11-12T16:38:38.540Z,4.73
2017-11-12T16:41:06.021Z,6.00
2017-11-12T16:43:33.485Z,4.53
2017-11-12T16:46:01.176Z,5.37
2017-11-12T16:48:28.767Z,5.23
2017-11-12T16:50:56.570Z,4.93
2017-11-12T16:53:24.156Z,3.60
2017-11-12T16:55:51.731Z,4.37
2017-11-12T16:58:19.145Z,2.37
2017-11-12T17:00:46.657Z,2.73
2017-11-12T17:03:14.143Z,4.10
2017-11-12T17:05:42.049Z,3.33
2017-11-12T17:08:09.511Z,2.70
2017-11-12T17:10:37.073Z,5.30
2017-11-12T17:13:04.535Z,4.53
2017-11-12T17:15:32.001Z,4.60
2017-11-12T17:17:59.614Z,2.73
2017-11-12T17:20:27.130Z,3.30
2017-11-12T17:22:54.641Z,5.23
2017-11-12T17:25:22.217Z,3.87
2017-11-12T17:27:50.399Z,3.40
2017-11-12T17:30:18.404Z,3.30
2017-11-12T17:32:46.837Z,2.60
2017-11-12T17:35:14.332Z,4.00
2017-11-12T17:37:42.328Z,2.80
2017-11-12T17:40:09.894Z,3.53
2017-11-12T17:42:37.440Z,3.40
2017-11-12T17:45:04.970Z,2.97
2017-11-12T17:47:32.500Z,3.40
2017-11-12T17:49:59.959Z,2.90
2017-11-12T17:52:27.408Z,2.30
2017-11-12T17:54:54.985Z,2.70
2017-11-12T17:57:22.455Z,2.57
2017-11-12T17:59:50.016Z,3.73
2017-11-12T18:02:17.500Z,3.03
2017-11-12T18:04:45.089Z,4.90
2017-11-12T18:07:12.513Z,5.40
2017-11-12T18:09:39.945Z,2.87
2017-11-12T18:12:07.404Z,3.13
2017-11-12T18:14:35.324Z,2.60
2017-11-12T18:17:02.828Z,4.47
2017-11-12T18:19:30.345Z,3.00
2017-11-12T18:21:57.804Z,2.60
2017-11-12T18:24:25.289Z,3.10
2017-11-12T18:26:52.744Z,2.53
2017-11-12T18:29:20.629Z,3.53
2017-11-12T18:31:48.085Z,5.43
2017-11-12T18:34:15.626Z,3.10
2017-11-12T18:36:43.151Z,3.73
2017-11-12T18:39:11.517Z,3.43
2017-11-12T18:41:39.519Z,2.73
2017-11-12T18:44:07.075Z,2.53
2017-11-12T18:46:34.527Z,3.30
2017-11-12T18:49:02.067Z,4.97
2017-11-12T18:51:29.491Z,3.03
2017-11-12T18:53:57.228Z,3.27
2017-11-12T18:56:29.332Z,3.17
2017-11-12T18:59:00.856Z,5.10
2017-11-12T19:01:33.901Z,5.33
2017-11-12T19:04:08.242Z,3.53
2017-11-12T19:06:41.563Z,3.80
2017-11-12T19:09:09.141Z,4.13
2017-11-12T19:11:37.969Z,4.23
2017-11-12T19:14:05.671Z,4.50
2017-11-12T19:16:33.234Z,6.53
2017-11-12T19:19:04.017Z,7.03
2017-11-12T19:21:34.400Z,4.23
2017-11-12T19:24:17.776Z,5.03
2017-11-12T19:26:47.893Z,4.67
2017-11-12T19:29:18.192Z,5.03
2017-11-12T19:31:45.760Z,6.20
2017-11-12T19:34:13.507Z,4.53
2017-11-12T19:36:41.214Z,7.10
2017-11-12T19:39:09.453Z,6.30
2017-11-12T19:41:37.431Z,5.03
2017-11-12T19:44:05.197Z,5.20
2017-11-12T19:46:32.963Z,5.50
2017-11-12T19:49:02.453Z,5.73
2017-11-12T19:51:31.164Z,5.17
2017-11-12T19:53:58.934Z,3.97
2017-11-12T19:56:27.826Z,4.10
2017-11-12T19:58:55.797Z,4.80
2017-11-12T20:01:23.654Z,4.17
2017-11-12T20:03:51.673Z,6.10
2017-11-12T20:06:20.436Z,4.50
2017-11-12T20:08:48.079Z,4.00
2017-11-12T20:11:15.795Z,5.63
2017-11-12T20:13:43.559Z,4.67
2017-11-12T20:16:11.260Z,4.70
2017-11-12T20:18:39.486Z,4.53
2017-11-12T20:21:07.894Z,7.00
2017-11-12T20:23:35.534Z,4.53
2017-11-12T20:26:03.037Z,5.30
2017-11-12T20:28:30.567Z,7.00
2017-11-12T20:30:58.021Z,5.17
2017-11-12T20:33:25.432Z,5.27
2017-11-12T20:35:52.880Z,5.10
2017-11-12T20:38:20.426Z,5.03
2017-11-12T20:40:47.873Z,6.30
2017-11-12T20:43:15.308Z,5.40
2017-11-12T20:45:43.122Z,5.70
2017-11-12T20:48:10.532Z,5.40
2017-11-12T20:50:38.389Z,4.93
2017-11-12T20:53:05.800Z,6.40
2017-11-12T20:55:33.233Z,6.77
2017-11-12T20:58:00.649Z,7.80
2017-11-12T21:00:31.594Z,4.80
2017-11-12T21:02:59.000Z,5.27
2017-11-12T21:05:42.273Z,4.90
2017-11-12T21:08:09.712Z,6.53
2017-11-12T21:10:37.607Z,6.50
2017-11-12T21:13:05.901Z,4.10
2017-11-12T21:15:33.291Z,5.03
2017-11-12T21:18:00.807Z,4.40
2017-11-12T21:20:29.679Z,4.53
2017-11-12T21:23:13.084Z,5.77
2017-11-12T21:25:40.530Z,4.00
2017-11-12T21:28:19.155Z,5.10
2017-11-12T21:30:46.750Z,5.33
2017-11-12T21:33:29.995Z,5.10
2017-11-12T21:36:09.265Z,5.10
2017-11-12T21:38:37.103Z,6.17
2017-11-12T21:41:04.541Z,4.73
2017-11-12T21:43:31.971Z,6.33
2017-11-12T21:45:59.395Z,5.10
2017-11-12T21:48:26.834Z,5.73
2017-11-12T21:50:54.277Z,5.93
2017-11-12T21:53:21.700Z,6.50
2017-11-12T21:55:49.164Z,6.00
2017-11-12T21:58:16.982Z,7.00
2017-11-12T22:00:44.415Z,4.83
2017-11-12T22:03:11.875Z,5.50
2017-11-12T22:05:39.326Z,6.30
2017-11-12T22:08:06.750Z,10.83
2017-11-12T22:10:34.286Z,10.60
2017-11-12T22:13:01.743Z,8.80
2017-11-12T22:15:29.596Z,5.70
2017-11-12T22:17:57.050Z,6.47
2017-11-12T22:20:25.668Z,5.57
2017-11-12T22:22:53.233Z,7.83
2017-11-12T22:25:20.807Z,7.30
2017-11-12T22:27:48.356Z,8.20
2017-11-12T22:30:15.882Z,6.30
2017-11-12T22:32:43.318Z,5.73
2017-11-12T22:35:10.839Z,6.80
2017-11-12T22:37:38.307Z,7.30
2017-11-12T22:40:05.752Z,7.83
2017-11-12T22:42:33.209Z,6.77
2017-11-12T22:45:00.637Z,7.00
2017-11-12T22:47:28.654Z,10.10
2017-11-12T22:49:56.390Z,6.60
2017-11-12T22:52:24.520Z,7.20
2017-11-12T22:54:52.482Z,7.90
2017-11-12T22:57:20.192Z,8.20
2017-11-12T22:59:47.611Z,7.90
2017-11-12T23:02:15.028Z,8.07
2017-11-12T23:04:42.876Z,9.70
2017-11-12T23:07:10.439Z,8.57
2017-11-12T23:09:37.853Z,9.83
2017-11-12T23:12:05.303Z,6.90
2017-11-12T23:14:33.004Z,7.50
2017-11-12T23:17:00.423Z,9.47
2017-11-12T23:19:28.022Z,8.30
2017-11-12T23:21:55.444Z,6.90
2017-11-12T23:24:22.944Z,6.57
2017-11-12T23:26:50.400Z,6.83
2017-11-12T23:29:17.850Z,6.47
2017-11-12T23:31:45.297Z,7.67
2017-11-12T23:34:13.488Z,6.50
2017-11-12T23:36:40.899Z,7.70
2017-11-12T23:39:08.437Z,7.13
2017-11-12T23:41:35.989Z,6.57
2017-11-12T23:44:03.963Z,7.50
2017-11-12T23:46:31.387Z,8.20
2017-11-12T23:48:58.911Z,9.23
2017-11-12T23:51:26.324Z,9.80
2017-11-12T23:53:53.748Z,9.77
2017-11-12T23:56:21.178Z,9.27
2017-11-12T23:58:48.632Z,9.43
